createdAt,value
2019-03-29T00:02:04.635Z,27.60
2019-03-29T00:04:33.182Z,27.30
2019-03-29T00:07:01.625Z,26.07
2019-03-29T00:09:30.080Z,26.30
2019-03-29T00:11:58.523Z,27.40
2019-03-29T00:14:27.464Z,27.10
2019-03-29T00:16:56.000Z,26.60
2019-03-29T00:19:24.462Z,27.33
2019-03-29T00:21:52.896Z,26.80
2019-03-29T00:24:21.355Z,28.30
2019-03-29T00:26:49.808Z,27.83
2019-03-29T00:29:18.246Z,29.07
2019-03-29T00:31:46.699Z,28.47
2019-03-29T00:34:15.944Z,28.97
2019-03-29T00:36:44.479Z,28.30
2019-03-29T00:39:13.016Z,27.80
2019-03-29T00:41:41.549Z,29.13
2019-03-29T00:44:09.988Z,28.13
2019-03-29T00:46:57.777Z,27.63
2019-03-29T00:49:26.245Z,26.60
2019-03-29T00:51:54.711Z,27.40
2019-03-29T00:54:23.274Z,27.80
2019-03-29T00:56:51.841Z,27.60
2019-03-29T00:59:32.441Z,28.90
2019-03-29T01:02:00.916Z,27.13
2019-03-29T01:04:29.355Z,28.67
2019-03-29T01:06:57.827Z,27.47
2019-03-29T01:09:26.261Z,28.63
2019-03-29T01:11:54.719Z,27.23
2019-03-29T01:14:23.172Z,27.90
2019-03-29T01:16:51.635Z,27.60
2019-03-29T01:19:20.151Z,28.73
2019-03-29T01:21:49.589Z,28.60
2019-03-29T01:24:18.030Z,30.40
2019-03-29T01:26:46.487Z,28.00
2019-03-29T01:29:14.927Z,30.13
2019-03-29T01:31:43.389Z,24.87
2019-03-29T01:34:11.827Z,22.17
2019-03-29T01:36:40.291Z,20.73
2019-03-29T01:39:08.745Z,20.93
2019-03-29T01:41:37.184Z,22.70
2019-03-29T01:44:05.719Z,21.00
2019-03-29T01:46:34.159Z,20.13
2019-03-29T01:49:03.603Z,21.47
2019-03-29T01:51:32.047Z,22.57
2019-03-29T01:54:01.567Z,22.63
2019-03-29T01:56:49.350Z,24.60
2019-03-29T01:59:17.843Z,25.17
2019-03-29T02:01:46.279Z,24.93
2019-03-29T02:04:14.884Z,23.60
2019-03-29T02:06:43.341Z,21.60
2019-03-29T02:09:31.283Z,23.50
2019-03-29T02:12:00.236Z,21.80
2019-03-29T02:14:28.687Z,19.60
2019-03-29T02:16:57.132Z,20.43
2019-03-29T02:19:25.655Z,20.87
2019-03-29T02:21:54.169Z,20.80
2019-03-29T02:24:23.284Z,20.70
2019-03-29T02:27:11.873Z,20.10
2019-03-29T02:29:40.323Z,19.90
2019-03-29T02:32:08.768Z,21.80
2019-03-29T02:34:37.243Z,21.93
2019-03-29T02:37:05.676Z,21.60
2019-03-29T02:39:34.255Z,20.57
2019-03-29T02:42:02.727Z,22.60
2019-03-29T02:44:31.277Z,19.43
2019-03-29T02:46:59.866Z,23.20
2019-03-29T02:49:28.303Z,21.50
2019-03-29T02:51:56.794Z,22.10
2019-03-29T02:54:25.279Z,21.73
2019-03-29T02:56:53.754Z,20.63
2019-03-29T02:59:22.180Z,19.47
2019-03-29T03:01:50.672Z,20.83
2019-03-29T03:04:19.172Z,21.70
2019-03-29T03:06:47.721Z,21.97
2019-03-29T03:09:16.190Z,20.03
2019-03-29T03:11:44.697Z,18.47
2019-03-29T03:14:13.156Z,19.23
2019-03-29T03:17:01.025Z,20.27
2019-03-29T03:19:29.469Z,19.93
2019-03-29T03:21:57.905Z,20.73
2019-03-29T03:24:26.359Z,19.10
2019-03-29T03:26:55.789Z,19.73
2019-03-29T03:29:24.235Z,19.93
2019-03-29T03:31:52.694Z,19.93
2019-03-29T03:34:21.145Z,19.00
2019-03-29T03:36:49.582Z,18.57
2019-03-29T03:39:31.606Z,19.47
2019-03-29T03:41:48.199Z,19.20
2019-03-29T03:44:16.733Z,19.33
2019-03-29T03:47:04.522Z,20.00
2019-03-29T03:49:33.055Z,19.33
2019-03-29T03:52:01.647Z,19.93
2019-03-29T03:54:30.312Z,19.30
2019-03-29T03:56:59.819Z,18.37
2019-03-29T03:59:29.856Z,21.10
2019-03-29T04:01:58.291Z,19.40
2019-03-29T04:04:26.795Z,20.13
2019-03-29T04:06:55.254Z,20.40
2019-03-29T04:09:23.701Z,20.70
2019-03-29T04:11:52.156Z,19.43
2019-03-29T04:14:20.591Z,21.13
2019-03-29T04:17:08.385Z,20.70
2019-03-29T04:19:36.841Z,19.07
2019-03-29T04:22:05.307Z,20.73
2019-03-29T04:24:33.811Z,19.53
2019-03-29T04:27:02.285Z,19.20
2019-03-29T04:29:30.804Z,20.37
2019-03-29T04:31:59.264Z,20.00
2019-03-29T04:34:27.704Z,21.67
2019-03-29T04:36:56.156Z,19.47
2019-03-29T04:39:24.602Z,19.60
2019-03-29T04:41:53.138Z,20.30
2019-03-29T04:44:21.567Z,18.90
2019-03-29T04:46:50.018Z,19.40
2019-03-29T04:49:18.478Z,20.07
2019-03-29T04:51:46.915Z,18.00
2019-03-29T04:54:15.376Z,20.00
2019-03-29T04:56:43.828Z,17.33
2019-03-29T04:59:12.280Z,18.60
2019-03-29T05:01:40.735Z,17.73
2019-03-29T05:04:09.201Z,18.33
2019-03-29T05:06:37.661Z,17.80
2019-03-29T05:09:06.560Z,17.90
2019-03-29T05:11:35.173Z,18.83
2019-03-29T05:14:03.643Z,18.80
2019-03-29T05:16:32.098Z,17.80
2019-03-29T05:19:00.536Z,17.40
2019-03-29T05:21:29.013Z,19.00
2019-03-29T05:23:57.535Z,19.07
2019-03-29T05:26:26.202Z,17.67
2019-03-29T05:28:54.722Z,17.27
2019-03-29T05:31:23.227Z,16.83
2019-03-29T05:33:51.662Z,17.80
2019-03-29T05:36:20.165Z,17.80
2019-03-29T05:38:48.635Z,17.47
2019-03-29T05:41:17.105Z,17.73
2019-03-29T05:43:45.536Z,17.57
2019-03-29T05:46:14.004Z,17.20
2019-03-29T05:48:42.455Z,17.90
2019-03-29T05:51:10.883Z,16.50
2019-03-29T05:53:39.331Z,16.47
2019-03-29T05:56:07.774Z,17.03
2019-03-29T05:58:36.231Z,15.67
2019-03-29T06:01:04.759Z,16.50
2019-03-29T06:03:33.212Z,15.70
2019-03-29T06:06:01.685Z,15.80
2019-03-29T06:08:30.178Z,15.80
2019-03-29T06:10:58.615Z,17.50
2019-03-29T06:13:27.151Z,16.10
2019-03-29T06:15:55.597Z,16.27
2019-03-29T06:18:24.076Z,15.47
2019-03-29T06:20:52.578Z,14.80
2019-03-29T06:23:21.048Z,16.27
2019-03-29T06:25:49.566Z,14.07
2019-03-29T06:28:18.097Z,17.53
2019-03-29T06:30:47.324Z,15.50
2019-03-29T06:33:15.785Z,16.03
2019-03-29T06:35:46.056Z,15.97
2019-03-29T06:38:14.890Z,14.67
2019-03-29T06:40:43.347Z,14.33
2019-03-29T06:43:11.816Z,14.57
2019-03-29T06:45:49.213Z,15.37
2019-03-29T06:48:17.762Z,16.50
2019-03-29T06:50:46.287Z,15.70
2019-03-29T06:53:14.815Z,15.30
2019-03-29T06:56:02.593Z,16.70
2019-03-29T06:58:31.041Z,16.00
2019-03-29T07:00:59.816Z,13.93
2019-03-29T07:03:28.294Z,15.80
2019-03-29T07:05:56.892Z,13.77
2019-03-29T07:08:25.337Z,15.90
2019-03-29T07:10:53.819Z,15.43
2019-03-29T07:13:22.595Z,14.90
2019-03-29T07:15:51.062Z,14.47
2019-03-29T07:18:19.560Z,14.10
2019-03-29T07:20:48.074Z,15.03
2019-03-29T07:23:16.550Z,15.07
2019-03-29T07:25:45.014Z,14.20
2019-03-29T07:28:13.460Z,13.57
2019-03-29T07:31:01.253Z,14.60
2019-03-29T07:33:29.701Z,13.20
2019-03-29T07:35:58.166Z,13.43
2019-03-29T07:38:26.615Z,13.83
2019-03-29T07:40:55.119Z,14.03
2019-03-29T07:43:24.132Z,15.07
2019-03-29T07:45:52.807Z,14.37
2019-03-29T07:48:21.274Z,15.90
2019-03-29T07:50:49.727Z,14.30
2019-03-29T07:53:18.224Z,15.60
2019-03-29T07:55:52.672Z,16.17
2019-03-29T07:58:21.141Z,15.97
2019-03-29T08:00:49.583Z,14.57
2019-03-29T08:03:30.620Z,16.80
2019-03-29T08:05:59.167Z,18.50
2019-03-29T08:08:32.284Z,18.10
2019-03-29T08:10:59.079Z,15.23
2019-03-29T08:13:27.708Z,14.30
2019-03-29T08:15:56.220Z,15.20
2019-03-29T08:18:24.689Z,13.07
2019-03-29T08:20:53.123Z,13.47
2019-03-29T08:23:28.945Z,13.60
2019-03-29T08:25:57.525Z,12.70
2019-03-29T08:28:25.982Z,11.97
2019-03-29T08:30:54.453Z,13.27
2019-03-29T08:33:22.884Z,12.70
2019-03-29T08:35:51.359Z,11.90
2019-03-29T08:38:19.863Z,12.10
2019-03-29T08:40:48.327Z,11.20
2019-03-29T08:43:16.778Z,10.80
2019-03-29T08:45:45.243Z,11.60
2019-03-29T08:48:13.758Z,10.60
2019-03-29T08:50:42.345Z,11.50
2019-03-29T08:53:10.800Z,11.90
2019-03-29T08:55:45.717Z,11.67
2019-03-29T08:58:09.440Z,12.20
2019-03-29T09:00:37.920Z,13.30
2019-03-29T09:03:06.395Z,12.60
2019-03-29T09:05:34.871Z,13.27
2019-03-29T09:08:03.384Z,13.00
2019-03-29T09:10:31.889Z,12.53
2019-03-29T09:13:00.356Z,13.63
2019-03-29T09:15:28.913Z,12.40
2019-03-29T09:17:59.853Z,13.57
2019-03-29T09:20:27.692Z,13.87
2019-03-29T09:22:56.156Z,13.40
2019-03-29T09:25:24.682Z,13.23
2019-03-29T09:27:53.148Z,12.97
2019-03-29T09:30:21.656Z,13.90
2019-03-29T09:32:51.532Z,13.73
2019-03-29T09:35:20.380Z,12.60
2019-03-29T09:37:48.839Z,14.00
2019-03-29T09:40:17.391Z,19.77
2019-03-29T09:42:45.864Z,13.30
2019-03-29T09:45:33.653Z,15.07
2019-03-29T09:48:02.144Z,18.37
2019-03-29T09:50:30.655Z,14.20
2019-03-29T09:53:01.763Z,18.77
2019-03-29T09:55:30.333Z,33.47
2019-03-29T09:57:58.860Z,14.73
2019-03-29T10:00:27.332Z,26.00
2019-03-29T10:02:56.776Z,28.33
2019-03-29T10:05:25.336Z,12.10
2019-03-29T10:07:53.775Z,11.73
2019-03-29T10:10:22.316Z,12.70
2019-03-29T10:12:50.829Z,12.87
2019-03-29T10:15:19.382Z,12.27
2019-03-29T10:18:07.181Z,11.50
2019-03-29T10:20:35.624Z,14.97
2019-03-29T10:23:04.091Z,11.80
2019-03-29T10:25:32.558Z,12.30
2019-03-29T10:28:20.377Z,12.73
2019-03-29T10:30:48.825Z,25.40
2019-03-29T10:33:17.303Z,10.73
2019-03-29T10:35:52.100Z,10.07
2019-03-29T10:38:18.463Z,11.33
2019-03-29T10:40:47.411Z,9.50
2019-03-29T10:43:15.864Z,10.80
2019-03-29T10:45:44.379Z,9.33
2019-03-29T10:48:12.863Z,11.37
2019-03-29T10:50:41.309Z,9.77
2019-03-29T10:53:09.755Z,10.93
2019-03-29T10:55:38.205Z,8.13
2019-03-29T10:58:09.488Z,8.00
2019-03-29T11:00:39.119Z,8.67
2019-03-29T11:03:07.788Z,10.30
2019-03-29T11:05:36.596Z,8.93
2019-03-29T11:08:05.112Z,10.00
2019-03-29T11:10:35.710Z,10.30
2019-03-29T11:13:12.867Z,8.70
2019-03-29T11:15:35.099Z,8.60
2019-03-29T11:18:22.935Z,9.30
2019-03-29T11:20:51.407Z,11.00
2019-03-29T11:23:19.856Z,22.47
2019-03-29T11:25:49.441Z,8.53
2019-03-29T11:28:18.955Z,7.37
2019-03-29T11:30:47.492Z,8.30
2019-03-29T11:33:15.933Z,7.80
2019-03-29T11:36:03.809Z,7.93
2019-03-29T11:38:32.390Z,8.07
2019-03-29T11:41:20.181Z,6.50
2019-03-29T11:43:50.674Z,6.87
2019-03-29T11:46:19.129Z,5.47
2019-03-29T11:48:47.931Z,5.10
2019-03-29T11:51:19.470Z,3.93
2019-03-29T11:53:46.637Z,4.13
2019-03-29T11:56:15.145Z,4.57
2019-03-29T11:58:43.621Z,8.10
2019-03-29T12:01:12.122Z,7.30
2019-03-29T12:03:40.589Z,6.10
2019-03-29T12:06:09.035Z,4.87
2019-03-29T12:08:37.480Z,6.07
2019-03-29T12:11:06.226Z,6.40
2019-03-29T12:13:40.884Z,7.07
2019-03-29T12:16:13.031Z,4.53
2019-03-29T12:18:41.567Z,9.40
2019-03-29T12:21:18.003Z,4.27
2019-03-29T12:23:46.480Z,4.13
2019-03-29T12:26:14.931Z,4.37
2019-03-29T12:28:49.111Z,5.80
2019-03-29T12:31:17.549Z,3.70
2019-03-29T12:33:46.015Z,4.00
2019-03-29T12:36:14.531Z,3.87
2019-03-29T12:38:43.040Z,3.93
2019-03-29T12:41:11.570Z,3.60
2019-03-29T12:43:55.041Z,4.20
2019-03-29T12:46:14.021Z,4.33
2019-03-29T12:48:42.448Z,3.70
2019-03-29T12:51:10.902Z,3.30
2019-03-29T12:53:39.435Z,4.33
2019-03-29T12:56:07.887Z,3.47
2019-03-29T12:58:36.330Z,3.17
2019-03-29T13:01:04.881Z,3.53
2019-03-29T13:03:33.369Z,4.70
2019-03-29T13:06:01.840Z,3.20
2019-03-29T13:08:30.364Z,3.93
2019-03-29T13:11:18.163Z,3.50
2019-03-29T13:13:46.595Z,3.80
2019-03-29T13:16:15.041Z,3.63
2019-03-29T13:18:43.489Z,4.30
2019-03-29T13:21:31.272Z,4.10
2019-03-29T13:23:59.731Z,4.30
2019-03-29T13:26:28.189Z,4.43
2019-03-29T13:28:56.661Z,4.40
2019-03-29T13:31:25.108Z,3.30
2019-03-29T13:33:53.551Z,4.77
2019-03-29T13:36:22.104Z,4.10
2019-03-29T13:38:50.561Z,3.67
2019-03-29T13:41:18.995Z,3.57
2019-03-29T13:43:47.454Z,3.70
2019-03-29T13:46:15.891Z,3.60
2019-03-29T13:48:44.347Z,3.50
2019-03-29T13:51:12.784Z,4.20
2019-03-29T13:53:41.262Z,3.57
2019-03-29T13:56:09.698Z,3.33
2019-03-29T13:58:38.159Z,3.20
2019-03-29T14:01:06.667Z,3.40
2019-03-29T14:03:35.136Z,3.07
2019-03-29T14:06:03.568Z,4.80
2019-03-29T14:08:32.008Z,3.67
2019-03-29T14:11:00.544Z,3.50
2019-03-29T14:13:28.983Z,3.20
2019-03-29T14:15:58.020Z,2.40
2019-03-29T14:18:26.594Z,3.57
2019-03-29T14:20:58.104Z,5.50
2019-03-29T14:23:26.544Z,4.50
2019-03-29T14:25:55.011Z,2.70
2019-03-29T14:28:23.460Z,4.43
2019-03-29T14:30:53.979Z,3.27
2019-03-29T14:33:22.567Z,3.70
2019-03-29T14:35:56.868Z,2.90
2019-03-29T14:38:25.397Z,3.30
2019-03-29T14:40:53.881Z,3.53
2019-03-29T14:43:22.335Z,3.83
2019-03-29T14:45:50.783Z,3.87
2019-03-29T14:48:19.248Z,5.90
2019-03-29T14:50:47.683Z,5.40
2019-03-29T14:53:35.480Z,3.03
2019-03-29T14:56:03.920Z,27.23
2019-03-29T14:58:32.443Z,3.77
2019-03-29T15:01:01.127Z,3.73
2019-03-29T15:03:29.587Z,2.90
2019-03-29T15:05:58.090Z,19.43
2019-03-29T15:08:26.620Z,3.83
2019-03-29T15:10:55.051Z,6.53
2019-03-29T15:13:23.525Z,2.63
2019-03-29T15:15:53.550Z,3.17
2019-03-29T15:18:22.295Z,15.20
2019-03-29T15:20:53.759Z,2.83
2019-03-29T15:23:20.971Z,3.03
2019-03-29T15:25:49.435Z,2.53
2019-03-29T15:28:17.886Z,9.00
2019-03-29T15:30:46.487Z,8.10
2019-03-29T15:33:14.926Z,2.60
2019-03-29T15:35:43.412Z,4.90
2019-03-29T15:38:11.843Z,2.50
2019-03-29T15:40:40.432Z,2.53
2019-03-29T15:43:28.228Z,2.57
2019-03-29T15:45:56.682Z,2.77
2019-03-29T15:48:25.111Z,2.80
2019-03-29T15:50:53.567Z,5.90
2019-03-29T15:53:22.004Z,3.00
2019-03-29T15:55:50.472Z,3.00
2019-03-29T15:58:18.970Z,2.80
2019-03-29T16:00:47.507Z,2.97
2019-03-29T16:03:15.943Z,2.77
2019-03-29T16:05:44.496Z,2.70
2019-03-29T16:08:12.935Z,2.70
2019-03-29T16:10:41.623Z,2.63
2019-03-29T16:13:10.276Z,3.17
2019-03-29T16:15:38.719Z,3.30
2019-03-29T16:18:07.251Z,3.43
2019-03-29T16:20:35.750Z,3.73
2019-03-29T16:23:04.712Z,4.10
2019-03-29T16:25:33.209Z,3.30
2019-03-29T16:28:03.046Z,3.47
2019-03-29T16:30:31.547Z,2.80
2019-03-29T16:33:00.001Z,3.13
2019-03-29T16:35:28.434Z,2.70
2019-03-29T16:37:57.812Z,2.70
2019-03-29T16:40:26.445Z,2.97
2019-03-29T16:42:54.910Z,3.73
2019-03-29T16:45:23.567Z,4.13
2019-03-29T16:47:52.082Z,4.80
2019-03-29T16:50:20.524Z,3.50
2019-03-29T16:52:49.088Z,3.27
2019-03-29T16:55:17.534Z,10.30
2019-03-29T16:57:45.986Z,4.90
2019-03-29T17:00:14.940Z,3.40
2019-03-29T17:02:43.464Z,4.20
2019-03-29T17:05:12.040Z,3.57
2019-03-29T17:07:40.552Z,3.03
2019-03-29T17:10:09.653Z,2.73
2019-03-29T17:12:38.095Z,2.70
2019-03-29T17:15:06.705Z,14.13
2019-03-29T17:17:35.604Z,3.27
2019-03-29T17:20:06.176Z,3.40
2019-03-29T17:22:36.043Z,3.20
2019-03-29T17:25:06.606Z,11.73
2019-03-29T17:27:35.100Z,3.20
2019-03-29T17:30:04.987Z,4.10
2019-03-29T17:32:33.515Z,3.13
2019-03-29T17:35:02.025Z,2.63
2019-03-29T17:37:30.459Z,3.50
2019-03-29T17:40:00.019Z,3.20
2019-03-29T17:42:30.335Z,12.83
2019-03-29T17:44:59.177Z,2.40
2019-03-29T17:47:27.775Z,2.90
2019-03-29T17:49:56.245Z,10.00
2019-03-29T17:52:24.682Z,3.57
2019-03-29T17:54:53.176Z,6.77
2019-03-29T17:57:21.632Z,3.70
2019-03-29T17:59:50.481Z,4.13
2019-03-29T18:02:19.132Z,5.13
2019-03-29T18:04:48.109Z,2.93
2019-03-29T18:07:19.068Z,3.40
2019-03-29T18:09:47.678Z,3.80
2019-03-29T18:12:16.195Z,4.30
2019-03-29T18:14:44.954Z,4.30
2019-03-29T18:17:13.450Z,3.90
2019-03-29T18:19:45.635Z,6.87
2019-03-29T18:22:14.180Z,5.50
2019-03-29T18:24:42.617Z,4.40
2019-03-29T18:27:11.148Z,3.77
2019-03-29T18:29:39.599Z,4.33
2019-03-29T18:32:08.188Z,4.10
2019-03-29T18:34:56.147Z,3.93
2019-03-29T18:37:30.011Z,5.87
2019-03-29T18:39:58.443Z,5.17
2019-03-29T18:42:26.904Z,4.30
2019-03-29T18:44:55.372Z,5.00
2019-03-29T18:47:23.809Z,5.03
2019-03-29T18:49:52.601Z,4.67
2019-03-29T18:52:21.287Z,5.20
2019-03-29T18:54:49.875Z,5.13
2019-03-29T18:57:18.362Z,4.77
2019-03-29T18:59:46.838Z,4.40
2019-03-29T19:02:15.284Z,5.43
2019-03-29T19:04:49.580Z,5.10
2019-03-29T19:07:21.092Z,4.53
2019-03-29T19:09:49.616Z,5.60
2019-03-29T19:12:18.175Z,5.57
2019-03-29T19:14:46.642Z,4.80
2019-03-29T19:17:15.096Z,4.17
2019-03-29T19:19:43.687Z,5.70
2019-03-29T19:22:12.139Z,5.80
2019-03-29T19:24:40.653Z,6.30
2019-03-29T19:27:09.145Z,4.70
2019-03-29T19:29:37.656Z,4.97
2019-03-29T19:32:06.220Z,5.40
2019-03-29T19:34:34.775Z,15.60
2019-03-29T19:37:03.240Z,4.93
2019-03-29T19:39:31.708Z,5.83
2019-03-29T19:42:00.505Z,5.43
2019-03-29T19:44:30.117Z,5.07
2019-03-29T19:47:17.992Z,9.00
2019-03-29T19:49:46.428Z,4.60
2019-03-29T19:52:15.054Z,7.17
2019-03-29T19:54:43.665Z,5.83
2019-03-29T19:57:12.159Z,6.10
2019-03-29T19:59:43.621Z,4.20
2019-03-29T20:02:12.128Z,4.40
2019-03-29T20:04:40.706Z,4.20
2019-03-29T20:07:09.257Z,5.00
2019-03-29T20:09:37.728Z,4.80
2019-03-29T20:12:06.363Z,4.60
2019-03-29T20:14:34.986Z,4.00
2019-03-29T20:17:03.672Z,5.20
2019-03-29T20:19:32.331Z,4.20
2019-03-29T20:22:02.836Z,4.80
2019-03-29T20:24:31.362Z,4.77
2019-03-29T20:26:59.947Z,4.60
2019-03-29T20:29:31.497Z,4.63
2019-03-29T20:32:00.080Z,4.77
2019-03-29T20:34:28.685Z,4.40
2019-03-29T20:36:57.218Z,5.13
2019-03-29T20:39:25.743Z,4.57
2019-03-29T20:41:54.169Z,4.00
2019-03-29T20:44:22.623Z,4.60
2019-03-29T20:46:51.095Z,6.00
2019-03-29T20:49:19.546Z,6.20
2019-03-29T20:51:53.880Z,5.67
2019-03-29T20:54:22.341Z,5.20
2019-03-29T20:57:10.140Z,5.30
2019-03-29T20:59:38.657Z,9.27
2019-03-29T21:02:07.120Z,22.13
2019-03-29T21:04:35.597Z,10.23
2019-03-29T21:07:04.063Z,5.50
2019-03-29T21:09:32.600Z,5.07
2019-03-29T21:12:01.101Z,4.57
2019-03-29T21:14:29.634Z,4.37
2019-03-29T21:16:58.085Z,4.80
2019-03-29T21:19:26.737Z,4.27
2019-03-29T21:21:55.302Z,4.90
2019-03-29T21:24:23.778Z,5.40
2019-03-29T21:26:52.227Z,10.43
2019-03-29T21:29:40.131Z,32.77
2019-03-29T21:32:08.567Z,6.30
2019-03-29T21:34:37.083Z,4.10
2019-03-29T21:37:07.607Z,5.13
2019-03-29T21:39:36.059Z,5.20
2019-03-29T21:42:04.576Z,5.37
2019-03-29T21:44:33.039Z,4.80
2019-03-29T21:47:01.491Z,5.07
2019-03-29T21:49:29.963Z,5.57
2019-03-29T21:51:58.409Z,6.00
2019-03-29T21:54:26.882Z,5.43
2019-03-29T21:56:55.319Z,6.27
2019-03-29T21:59:25.174Z,5.30
2019-03-29T22:01:53.891Z,5.10
2019-03-29T22:04:22.346Z,4.80
2019-03-29T22:06:50.795Z,25.33
2019-03-29T22:09:19.246Z,13.57
2019-03-29T22:11:47.682Z,12.57
2019-03-29T22:14:16.167Z,5.50
2019-03-29T22:16:44.687Z,4.60
2019-03-29T22:19:13.144Z,4.53
2019-03-29T22:21:41.595Z,5.30
2019-03-29T22:24:10.039Z,9.93
2019-03-29T22:26:38.500Z,4.43
2019-03-29T22:29:06.930Z,4.13
2019-03-29T22:31:35.463Z,4.80
2019-03-29T22:34:03.977Z,5.07
2019-03-29T22:36:32.436Z,14.90
2019-03-29T22:39:00.938Z,15.00
2019-03-29T22:41:29.420Z,8.33
2019-03-29T22:43:57.867Z,4.60
2019-03-29T22:46:26.407Z,3.83
2019-03-29T22:48:54.845Z,3.80
2019-03-29T22:51:23.307Z,4.00
2019-03-29T22:53:51.751Z,3.37
2019-03-29T22:56:20.276Z,4.10
2019-03-29T22:59:08.043Z,4.10
2019-03-29T23:01:39.578Z,4.30
2019-03-29T23:04:08.063Z,3.97
2019-03-29T23:06:36.532Z,14.57
2019-03-29T23:09:07.084Z,13.93
2019-03-29T23:11:35.599Z,8.53
2019-03-29T23:14:04.366Z,14.40
2019-03-29T23:16:32.867Z,7.80
2019-03-29T23:19:06.828Z,62.67
2019-03-29T23:21:31.519Z,5.10
2019-03-29T23:23:59.975Z,4.20
2019-03-29T23:26:28.406Z,3.83
2019-03-29T23:28:56.883Z,4.20
2019-03-29T23:31:25.331Z,4.67
2019-03-29T23:34:13.121Z,3.70
2019-03-29T23:36:41.570Z,10.10
2019-03-29T23:39:10.407Z,24.90
2019-03-29T23:41:38.847Z,24.83
2019-03-29T23:44:07.379Z,4.40
2019-03-29T23:46:42.512Z,4.53
2019-03-29T23:49:20.761Z,3.90
2019-03-29T23:51:41.119Z,4.30
2019-03-29T23:54:09.592Z,4.00
2019-03-29T23:56:38.032Z,4.80
2019-03-29T23:59:06.500Z,6.87
